Time;durP1;ratioP1;P1;durP2;ratioP2;P2;SDS_P1;SDS_P2;PMS_P1;PMS_P2;Temp;Humidity;BMP_temperature;BMP_pressure;BME280_temperature;BME280_humidity;BME280_pressure;Samples;Min_cycle;Max_cycle;Signal;HPM_P1;HPM_P2
2023/04/10 00:00:30;;;;;;;35.00;26.73;;;;;;;8.19;100.00;102360.56;4984823;28;20437;-70
2023/04/10 00:03:00;;;;;;;33.90;24.87;;;;;;;7.93;100.00;102319.31;4983582;28;20185;-69
2023/04/10 00:05:26;;;;;;;34.60;27.17;;;;;;;8.19;100.00;102342.72;4979149;28;20288;-69
2023/04/10 00:07:52;;;;;;;35.07;27.53;;;;;;;8.48;100.00;102419.34;4975844;28;20564;-70
2023/04/10 00:10:18;;;;;;;33.33;26.90;;;;;;;8.39;100.00;102418.38;4967205;28;20498;-70
2023/04/10 00:12:44;;;;;;;36.93;26.27;;;;;;;7.48;100.00;102274.56;4981384;28;20441;-71
2023/04/10 00:15:09;;;;;;;34.73;26.57;;;;;;;8.33;100.00;102373.47;4980881;28;20237;-71
2023/04/10 00:17:35;;;;;;;34.57;26.93;;;;;;;8.25;100.00;102371.53;4980940;28;20862;-71
2023/04/10 00:20:01;;;;;;;33.03;26.03;;;;;;;7.98;100.00;102342.06;4972450;28;20185;-71
2023/04/10 00:22:26;;;;;;;40.43;27.23;;;;;;;8.34;100.00;102417.94;4990265;28;20192;-70
2023/04/10 00:24:52;;;;;;;34.27;27.10;;;;;;;8.01;100.00;102369.34;4988158;28;20177;-71
2023/04/10 00:27:17;;;;;;;40.60;29.00;;;;;;;8.37;100.00;102426.50;4972333;28;20248;-71
2023/04/10 00:29:43;;;;;;;36.43;28.03;;;;;;;7.56;100.00;102308.56;4989634;28;20246;-71
2023/04/10 00:32:08;;;;;;;36.67;28.60;;;;;;;8.23;100.00;102404.75;4989776;28;20181;-71
2023/04/10 00:34:33;;;;;;;37.10;28.70;;;;;;;8.53;100.00;102419.72;4987878;28;20636;-70
2023/04/10 00:36:59;;;;;;;34.90;27.10;;;;;;;8.34;100.00;102396.56;4988071;28;20210;-70
2023/04/10 00:39:24;;;;;;;40.77;28.50;;;;;;;8.50;100.00;102414.66;4986588;28;20173;-71
2023/04/10 00:41:50;;;;;;;40.60;28.90;;;;;;;8.23;100.00;102381.53;4988558;28;20821;-71
2023/04/10 00:44:15;;;;;;;37.67;28.67;;;;;;;7.98;100.00;102352.75;4988240;28;20198;-71
2023/04/10 00:46:41;;;;;;;42.17;28.90;;;;;;;8.42;100.00;102401.19;4987914;28;20627;-71
2023/04/10 00:49:08;;;;;;;40.00;28.83;;;;;;;8.15;100.00;102384.09;4987794;28;20220;-71
2023/04/10 00:51:35;;;;;;;39.57;30.00;;;;;;;8.21;100.00;102372.81;4968835;28;20281;-70
2023/04/10 00:54:01;;;;;;;42.03;28.53;;;;;;;8.02;100.00;102346.16;4968522;28;21005;-70
2023/04/10 00:56:29;;;;;;;37.40;28.67;;;;;;;8.37;100.00;102390.91;4979083;28;21244;-71
2023/04/10 00:58:55;;;;;;;41.13;29.60;;;;;;;8.54;100.00;102390.19;4982163;28;20444;-71
2023/04/10 01:01:20;;;;;;;40.50;29.73;;;;;;;8.39;100.00;102380.97;4976704;28;21005;-71
2023/04/10 01:03:46;;;;;;;41.07;30.23;;;;;;;8.19;100.00;102360.56;4981271;28;20186;-71
2023/04/10 01:06:40;;;;;;;42.67;29.87;;;;;;;8.35;100.00;102371.50;4979397;28;20229;-71
2023/04/10 01:09:11;;;;;;;41.87;29.13;;;;;;;8.28;100.00;102343.69;4977840;28;20248;-70
2023/04/10 01:11:55;;;;;;;38.60;28.03;;;;;;;8.24;100.00;102328.91;4979447;28;20535;-71
2023/04/10 01:14:32;;;;;;;39.43;28.10;;;;;;;8.34;100.00;102357.28;4980141;28;20475;-70
2023/04/10 01:17:05;;;;;;;39.33;29.77;;;;;;;8.07;100.00;102306.44;4984248;28;20980;-70
2023/04/10 01:19:52;;;;;;;34.93;28.17;;;;;;;7.89;100.00;102309.88;4978667;28;20440;-70
2023/04/10 01:22:25;;;;;;;36.00;28.03;;;;;;;8.10;100.00;102339.09;4978246;28;22952;-70
2023/04/10 01:25:12;;;;;;;38.00;28.30;;;;;;;7.54;100.00;102275.00;4981172;28;20451;-71
2023/04/10 01:27:56;;;;;;;38.53;28.20;;;;;;;7.96;100.00;102350.25;4979867;28;20500;-70
2023/04/10 01:30:22;;;;;;;34.67;27.70;;;;;;;8.13;100.00;102348.66;4979262;28;20800;-70
2023/04/10 01:32:49;;;;;;;34.13;27.27;;;;;;;8.11;100.00;102366.66;4976952;28;20444;-70
2023/04/10 01:35:16;;;;;;;34.20;25.90;;;;;;;8.03;100.00;102348.66;4978885;28;20213;-70
2023/04/10 01:37:45;;;;;;;39.50;27.90;;;;;;;7.52;100.00;102276.94;4980253;28;20436;-70
2023/04/10 01:40:15;;;;;;;34.93;26.40;;;;;;;7.29;100.00;102245.25;4983941;28;20441;-70
2023/04/10 01:42:46;;;;;;;36.50;26.77;;;;;;;7.58;100.00;102311.09;4985410;28;20464;-70
2023/04/10 01:45:17;;;;;;;33.80;25.70;;;;;;;7.89;100.00;102341.94;4988295;28;20431;-70
2023/04/10 01:47:43;;;;;;;37.10;27.30;;;;;;;7.90;100.00;102349.00;4971936;28;20460;-70
2023/04/10 01:50:10;;;;;;;38.10;27.77;;;;;;;7.14;100.00;102199.47;4988694;28;20429;-70
2023/04/10 01:52:38;;;;;;;33.37;24.60;;;;;;;7.57;100.00;102269.34;4986086;28;21033;-70
2023/04/10 01:55:06;;;;;;;33.13;26.20;;;;;;;7.91;100.00;102356.00;4986770;28;20519;-70
2023/04/10 01:57:34;;;;;;;34.20;25.70;;;;;;;7.93;100.00;102350.53;4986826;28;20413;-70
2023/04/10 02:00:00;;;;;;;32.17;25.97;;;;;;;7.66;100.00;102272.00;4989164;28;20429;-70
2023/04/10 02:02:30;;;;;;;33.00;25.10;;;;;;;8.10;100.00;102307.03;4986912;28;20508;-70
2023/04/10 02:04:55;;;;;;;33.30;27.50;;;;;;;7.42;100.00;102219.09;4986205;28;20328;-71
2023/04/10 02:07:45;;;;;;;36.67;27.37;;;;;;;7.95;100.00;102324.50;4988612;28;20531;-70
2023/04/10 02:10:16;;;;;;;34.23;25.80;;;;;;;8.01;100.00;102333.75;4980191;28;20217;-70
2023/04/10 02:12:52;;;;;;;36.60;26.00;;;;;;;7.08;100.00;102202.72;4978008;28;20439;-70
2023/04/10 02:15:20;;;;;;;34.80;26.10;;;;;;;7.88;100.00;102329.59;4975134;28;20465;-70
2023/04/10 02:17:47;;;;;;;33.70;26.10;;;;;;;7.84;100.00;102316.66;4976112;28;20439;-70
2023/04/10 02:20:13;;;;;;;36.40;26.67;;;;;;;7.23;100.00;102193.28;4980183;28;20479;-70
2023/04/10 02:22:42;;;;;;;32.43;25.10;;;;;;;7.31;100.00;102245.09;4978167;28;20436;-70
2023/04/10 02:25:09;;;;;;;36.10;26.60;;;;;;;7.77;100.00;102332.41;4980016;28;20448;-70
2023/04/10 02:27:35;;;;;;;35.73;27.53;;;;;;;7.70;100.00;102289.44;4979099;28;20539;-70
2023/04/10 02:30:02;;;;;;;34.13;27.20;;;;;;;7.38;100.00;102263.06;4979350;28;20598;-70
2023/04/10 02:32:28;;;;;;;34.70;28.13;;;;;;;7.33;100.00;102269.81;4981744;28;20471;-70
2023/04/10 02:34:55;;;;;;;32.30;25.70;;;;;;;8.01;100.00;102323.91;4966845;28;20527;-70
2023/04/10 02:37:20;;;;;;;34.13;25.60;;;;;;;7.71;100.00;102306.28;4982923;28;20972;-70
2023/04/10 02:39:46;;;;;;;33.43;25.53;;;;;;;7.86;100.00;102326.22;4979492;28;20452;-70
2023/04/10 02:42:11;;;;;;;32.10;24.57;;;;;;;7.38;100.00;102238.22;4979260;28;20558;-70
2023/04/10 02:44:38;;;;;;;30.97;24.00;;;;;;;7.44;100.00;102270.50;4980850;28;20268;-70
2023/04/10 02:47:05;;;;;;;36.80;25.30;;;;;;;7.67;100.00;102304.91;4980283;28;20210;-70
2023/04/10 02:49:36;;;;;;;33.13;24.77;;;;;;;7.84;100.00;102320.19;4978939;28;20504;-70
2023/04/10 02:52:02;;;;;;;36.80;25.47;;;;;;;7.74;100.00;102316.69;4984751;28;20435;-70
2023/04/10 02:54:27;;;;;;;34.50;25.77;;;;;;;7.66;100.00;102311.22;4978795;28;21467;-70
2023/04/10 02:56:53;;;;;;;32.80;25.00;;;;;;;6.59;100.00;102158.38;4959975;28;20986;-70
2023/04/10 02:59:19;;;;;;;31.20;25.30;;;;;;;7.40;100.00;102268.25;4972406;28;20201;-70
2023/04/10 03:01:46;;;;;;;37.33;26.07;;;;;;;7.63;100.00;102306.16;4962907;28;20687;-70
2023/04/10 03:04:12;;;;;;;30.20;22.57;;;;;;;7.08;100.00;102249.91;4978093;28;20440;-70
2023/04/10 03:06:37;;;;;;;34.30;25.40;;;;;;;7.61;100.00;102318.84;4982493;28;20460;-70
2023/04/10 03:09:03;;;;;;;32.37;23.70;;;;;;;7.37;100.00;102260.53;4982205;28;20477;-70
2023/04/10 03:11:29;;;;;;;32.27;25.23;;;;;;;7.73;100.00;102328.38;4963312;28;20193;-70
2023/04/10 03:13:57;;;;;;;33.60;25.53;;;;;;;7.42;100.00;102328.53;4979631;28;20185;-70
2023/04/10 03:16:22;;;;;;;30.17;23.60;;;;;;;6.93;100.00;102305.50;4974661;28;20484;-70
2023/04/10 03:18:48;;;;;;;30.17;24.40;;;;;;;6.75;100.00;102297.34;4976030;28;20449;-70
2023/04/10 03:21:13;;;;;;;32.50;23.77;;;;;;;7.30;100.00;102332.34;4966579;28;20269;-70
2023/04/10 03:23:39;;;;;;;30.40;24.27;;;;;;;7.47;100.00;102347.66;4977307;28;20182;-70
2023/04/10 03:26:04;;;;;;;31.53;24.10;;;;;;;6.81;100.00;102243.44;4983115;28;20218;-70
2023/04/10 03:28:31;;;;;;;30.40;23.10;;;;;;;7.16;100.00;102301.56;4984152;28;20688;-70
2023/04/10 03:30:57;;;;;;;31.77;23.77;;;;;;;7.59;100.00;102340.34;4985254;28;20545;-70
2023/04/10 03:33:22;;;;;;;34.10;24.83;;;;;;;7.08;100.00;102231.22;4987944;28;20459;-70
2023/04/10 03:35:48;;;;;;;31.80;24.63;;;;;;;7.29;100.00;102319.13;4986636;28;20198;-70
2023/04/10 03:38:13;;;;;;;30.50;23.43;;;;;;;7.39;100.00;102326.16;4982520;28;20668;-70
2023/04/10 03:40:39;;;;;;;32.53;24.10;;;;;;;7.48;100.00;102341.31;4986670;28;20194;-70
2023/04/10 03:43:04;;;;;;;34.13;24.20;;;;;;;6.58;100.00;102216.19;4968786;28;20189;-69
2023/04/10 03:45:30;;;;;;;29.77;23.63;;;;;;;6.99;100.00;102244.41;4988723;28;20214;-70
2023/04/10 03:47:55;;;;;;;31.80;23.30;;;;;;;6.74;100.00;102245.84;4990294;28;20224;-70
2023/04/10 03:50:21;;;;;;;31.70;23.10;;;;;;;7.27;100.00;102319.28;4987397;28;20747;-70
2023/04/10 03:52:48;;;;;;;34.23;24.53;;;;;;;6.80;100.00;102223.09;4987526;28;20186;-70
2023/04/10 03:55:17;;;;;;;30.10;23.53;;;;;;;6.74;100.00;102216.50;4986152;28;20193;-70
2023/04/10 03:57:44;;;;;;;31.00;24.70;;;;;;;6.67;100.00;102201.19;4984046;28;20499;-70
2023/04/10 04:00:11;;;;;;;33.43;24.43;;;;;;;7.50;100.00;102314.50;4986838;28;20879;-70
2023/04/10 04:02:36;;;;;;;30.03;23.50;;;;;;;7.29;100.00;102309.31;4988806;28;20522;-70
2023/04/10 04:05:02;;;;;;;32.37;24.37;;;;;;;7.27;100.00;102291.75;4986081;28;20448;-70
2023/04/10 04:07:27;;;;;;;27.57;22.27;;;;;;;7.11;100.00;102289.63;4987119;28;20197;-70
2023/04/10 04:09:54;;;;;;;31.53;23.70;;;;;;;7.08;100.00;102284.59;4987122;28;20213;-70
2023/04/10 04:12:19;;;;;;;35.13;25.30;;;;;;;6.76;100.00;102283.00;4986768;28;20608;-70
2023/04/10 04:14:45;;;;;;;30.40;24.27;;;;;;;7.01;100.00;102335.00;4988892;28;20442;-70
2023/04/10 04:17:10;;;;;;;29.57;23.70;;;;;;;6.97;100.00;102269.53;4987993;28;20228;-70
2023/04/10 04:19:36;;;;;;;32.43;24.43;;;;;;;6.39;100.00;102182.34;4987285;28;20186;-70
2023/04/10 04:22:01;;;;;;;34.20;25.50;;;;;;;7.16;100.00;102287.41;4989832;28;20194;-70
2023/04/10 04:24:27;;;;;;;30.17;24.27;;;;;;;6.61;100.00;102204.41;4990287;28;20682;-71
2023/04/10 04:26:52;;;;;;;32.57;23.57;;;;;;;6.63;100.00;102235.28;4987906;28;20241;-70
2023/04/10 04:29:18;;;;;;;30.20;22.83;;;;;;;6.83;100.00;102227.28;4993933;23;20462;-72
2023/04/10 04:31:43;;;;;;;28.00;23.20;;;;;;;7.09;100.00;102294.25;4985172;28;20249;-72
2023/04/10 04:34:09;;;;;;;31.20;23.60;;;;;;;6.89;100.00;102272.09;4985039;28;20659;-72
2023/04/10 04:36:34;;;;;;;31.67;24.40;;;;;;;6.62;100.00;102179.44;4965822;28;20205;-72
2023/04/10 04:39:00;;;;;;;32.30;25.40;;;;;;;7.04;100.00;102237.84;4981996;28;20210;-72
2023/04/10 04:41:25;;;;;;;38.97;25.50;;;;;;;6.20;100.00;102105.09;4984402;28;20269;-72
2023/04/10 04:43:52;;;;;;;33.43;24.67;;;;;;;6.40;100.00;102095.28;4967570;28;20374;-72
2023/04/10 04:46:17;;;;;;;31.20;24.57;;;;;;;7.36;100.00;102256.19;4981807;28;20794;-72
2023/04/10 04:48:43;;;;;;;31.30;24.10;;;;;;;7.33;100.00;102243.97;4983429;28;20472;-72
2023/04/10 04:51:08;;;;;;;35.03;25.97;;;;;;;6.72;100.00;102130.47;4981301;28;20189;-72
2023/04/10 04:53:34;;;;;;;33.93;25.50;;;;;;;6.64;100.00;102114.31;4977352;28;20199;-72
2023/04/10 04:55:59;;;;;;;36.53;26.00;;;;;;;7.07;100.00;102176.19;4980029;28;20182;-72
2023/04/10 04:58:25;;;;;;;31.63;25.63;;;;;;;7.18;100.00;102234.72;4981128;28;20178;-71
2023/04/10 05:00:51;;;;;;;33.50;26.13;;;;;;;7.29;100.00;102229.25;4976900;28;20241;-72
2023/04/10 05:03:16;;;;;;;35.03;25.67;;;;;;;6.94;100.00;102192.47;4977493;28;20193;-71
2023/04/10 05:05:42;;;;;;;33.67;26.33;;;;;;;6.47;100.00;102083.88;4979535;28;20437;-71
2023/04/10 05:08:08;;;;;;;36.40;27.00;;;;;;;6.93;100.00;102145.44;4978189;28;20692;-71
2023/04/10 05:10:33;;;;;;;32.50;24.87;;;;;;;7.52;100.00;102235.09;4981169;28;20248;-72
2023/04/10 05:12:59;;;;;;;35.30;24.90;;;;;;;7.07;100.00;102133.50;4981297;28;20192;-72
2023/04/10 05:15:24;;;;;;;32.30;25.70;;;;;;;7.53;100.00;102227.94;4984214;28;20212;-72
2023/04/10 05:17:51;;;;;;;33.07;25.20;;;;;;;7.53;100.00;102227.94;4981225;28;20198;-72
2023/04/10 05:20:17;;;;;;;34.07;26.23;;;;;;;7.47;100.00;102226.66;4979053;28;20243;-72
2023/04/10 05:22:43;;;;;;;30.93;24.77;;;;;;;6.82;100.00;102134.94;4979690;28;20481;-72
2023/04/10 05:25:08;;;;;;;33.20;23.97;;;;;;;6.21;100.00;101997.50;4979414;28;20436;-72
2023/04/10 05:27:35;;;;;;;31.03;23.90;;;;;;;7.83;100.00;102226.81;4979497;28;20213;-72
2023/04/10 05:30:01;;;;;;;31.37;23.50;;;;;;;7.81;100.00;102220.78;4975422;28;20217;-71
2023/04/10 05:32:26;;;;;;;32.60;24.17;;;;;;;7.11;100.00;102092.19;4967851;28;20862;-72
2023/04/10 05:34:52;;;;;;;32.57;23.40;;;;;;;7.35;100.00;102143.25;4982542;28;20441;-72
2023/04/10 05:37:17;;;;;;;31.03;24.47;;;;;;;7.43;100.00;102155.84;4979727;28;20193;-71
2023/04/10 05:39:42;;;;;;;32.20;24.90;;;;;;;7.45;100.00;102151.22;4984279;28;20338;-71
2023/04/10 05:42:08;;;;;;;34.13;26.20;;;;;;;7.72;100.00;102221.66;4984535;28;20640;-71
2023/04/10 05:44:33;;;;;;;29.60;23.23;;;;;;;7.32;100.00;102130.19;4986867;28;20632;-72
2023/04/10 05:46:59;;;;;;;33.00;25.20;;;;;;;7.71;100.00;102220.81;4987173;28;20643;-72
2023/04/10 05:49:24;;;;;;;30.90;25.40;;;;;;;7.83;100.00;102227.66;4971268;28;20584;-72
2023/04/10 05:51:51;;;;;;;35.03;26.00;;;;;;;7.13;100.00;102093.72;4971802;28;20186;-71
2023/04/10 05:54:16;;;;;;;29.10;23.00;;;;;;;7.22;100.00;102060.81;4984877;28;20236;-71
2023/04/10 05:56:42;;;;;;;32.00;22.97;;;;;;;7.41;100.00;102132.00;4987067;28;20430;-72
2023/04/10 05:59:07;;;;;;;34.53;25.57;;;;;;;7.95;100.00;102195.41;4987001;28;20281;-72
2023/04/10 06:01:33;;;;;;;32.00;24.30;;;;;;;7.86;100.00;102199.81;4986650;28;20550;-72
2023/04/10 06:03:58;;;;;;;30.13;23.70;;;;;;;7.80;100.00;102221.78;4985921;28;20189;-72
2023/04/10 06:06:25;;;;;;;34.57;26.13;;;;;;;7.67;100.00;102176.72;4972233;28;20240;-71
2023/04/10 06:08:51;;;;;;;34.67;25.33;;;;;;;7.45;100.00;102119.19;4981725;28;20221;-72
2023/04/10 06:11:16;;;;;;;37.20;26.10;;;;;;;7.91;100.00;102193.03;4977585;28;20477;-72
2023/04/10 06:13:42;;;;;;;31.80;23.40;;;;;;;8.03;100.00;102196.34;4962566;28;20645;-71
2023/04/10 06:16:07;;;;;;;34.30;25.97;;;;;;;7.90;100.00;102175.34;4982133;28;20272;-72
2023/04/10 06:18:33;;;;;;;29.30;23.57;;;;;;;8.10;100.00;102184.09;4983477;28;20312;-71
2023/04/10 06:21:00;;;;;;;32.47;24.53;;;;;;;7.53;100.00;102105.09;4987729;28;20263;-71
2023/04/10 06:23:27;;;;;;;29.90;24.43;;;;;;;7.43;100.00;102078.44;4989530;28;20204;-72
2023/04/10 06:25:55;;;;;;;33.70;25.83;;;;;;;7.75;100.00;102110.03;4988574;28;21118;-71
2023/04/10 06:28:21;;;;;;;32.73;24.53;;;;;;;7.88;100.00;102096.31;4989395;28;20457;-71
2023/04/10 06:30:46;;;;;;;33.43;24.73;;;;;;;7.93;100.00;102113.59;4987688;28;20946;-74
2023/04/10 06:33:12;;;;;;;33.10;25.37;;;;;;;8.05;100.00;102108.88;4991901;28;20182;-71
2023/04/10 06:35:37;;;;;;;31.63;24.40;;;;;;;8.05;100.00;102111.53;4983686;28;20186;-71
2023/04/10 06:38:03;;;;;;;34.40;25.77;;;;;;;8.27;100.00;102142.31;4969093;28;20186;-71
2023/04/10 06:40:29;;;;;;;31.53;23.30;;;;;;;8.14;100.00;102107.97;4983253;28;20213;-71
2023/04/10 06:42:55;;;;;;;33.03;24.87;;;;;;;7.98;100.00;102056.19;4967935;28;20182;-71
2023/04/10 06:45:20;;;;;;;30.60;23.80;;;;;;;8.38;100.00;102090.47;4982095;28;20814;-71
2023/04/10 06:47:46;;;;;;;30.93;22.43;;;;;;;8.37;100.00;102089.63;4979857;28;20238;-71
2023/04/10 06:50:11;;;;;;;28.40;22.10;;;;;;;8.51;100.00;102087.44;4982186;28;20528;-72
2023/04/10 06:52:37;;;;;;;28.43;23.23;;;;;;;8.44;100.00;102062.31;4970642;28;20272;-71
2023/04/10 06:55:03;;;;;;;28.17;21.93;;;;;;;8.71;100.00;102104.16;4989246;28;20182;-71
2023/04/10 06:57:28;;;;;;;33.07;24.53;;;;;;;8.45;100.00;102054.16;4990246;28;20193;-71
2023/04/10 06:59:54;;;;;;;32.00;24.03;;;;;;;8.70;100.00;102097.09;4971065;28;20512;-74
2023/04/10 07:02:19;;;;;;;36.63;23.97;;;;;;;8.47;100.00;102041.44;4980340;28;20236;-71
2023/04/10 07:04:45;;;;;;;30.17;22.50;;;;;;;8.69;100.00;102056.16;4985052;28;20185;-71
2023/04/10 07:07:12;;;;;;;30.40;22.80;;;;;;;9.14;100.00;102095.25;4984477;28;20193;-72
2023/04/10 07:09:38;;;;;;;30.93;22.87;;;;;;;8.63;100.00;102018.50;4985510;28;20628;-71
2023/04/10 07:12:04;;;;;;;30.90;22.63;;;;;;;8.25;100.00;101948.38;4986087;28;20451;-71
2023/04/10 07:14:32;;;;;;;27.57;21.77;;;;;;;9.34;100.00;102098.50;4983666;28;20448;-71
2023/04/10 07:16:58;;;;;;;29.17;21.60;;;;;;;9.17;100.00;102051.25;4982778;28;20209;-72
2023/04/10 07:19:23;;;;;;;27.10;22.47;;;;;;;9.01;100.00;101998.47;4970803;28;21571;-71
2023/04/10 07:21:49;;;;;;;27.83;21.10;;;;;;;9.12;100.00;102019.63;4971055;28;20569;-71
2023/04/10 07:24:17;;;;;;;28.03;21.63;;;;;;;8.86;100.00;101962.63;4990177;28;20261;-71
2023/04/10 07:26:46;;;;;;;29.30;21.20;;;;;;;8.55;100.00;101897.09;4990919;28;20630;-71
2023/04/10 07:29:14;;;;;;;26.53;20.07;;;;;;;9.57;100.00;102073.84;4983635;28;20567;-72
2023/04/10 07:31:40;;;;;;;24.90;20.63;;;;;;;9.02;100.00;101946.63;4987287;28;20452;-71
2023/04/10 07:34:06;;;;;;;26.30;21.17;;;;;;;9.82;100.00;102064.03;4976757;28;20817;-71
2023/04/10 07:36:31;;;;;;;31.77;22.20;;;;;;;9.77;100.00;102048.44;4980044;28;20437;-71
2023/04/10 07:38:57;;;;;;;26.30;22.23;;;;;;;9.04;100.00;101928.56;4978684;28;20205;-72
2023/04/10 07:41:22;;;;;;;27.27;21.80;;;;;;;9.08;100.00;101927.25;4962797;28;20244;-71
2023/04/10 07:43:48;;;;;;;29.03;22.10;;;;;;;9.91;100.00;102044.28;4963303;28;20174;-71
2023/04/10 07:46:14;;;;;;;26.73;21.47;;;;;;;9.71;100.00;102001.72;4973947;28;20194;-71
2023/04/10 07:48:40;;;;;;;26.00;19.70;;;;;;;9.37;100.00;101936.69;4966032;28;20206;-71
2023/04/10 07:51:08;;;;;;;26.07;21.13;;;;;;;9.94;100.00;101998.41;4978550;28;20193;-71
2023/04/10 07:53:34;;;;;;;26.60;20.80;;;;;;;9.88;100.00;101969.59;4982448;28;20228;-71
2023/04/10 07:56:00;;;;;;;24.90;19.10;;;;;;;10.04;100.00;101987.50;4976340;28;20900;-71
2023/04/10 07:58:26;;;;;;;22.90;19.80;;;;;;;9.71;100.00;101905.25;4982218;28;20465;-72
2023/04/10 08:00:51;;;;;;;23.23;19.60;;;;;;;9.98;100.00;101910.44;4966774;28;20185;-72
2023/04/10 08:03:17;;;;;;;25.80;20.33;;;;;;;10.25;100.00;101914.63;4983590;28;20263;-72
2023/04/10 08:05:42;;;;;;;23.10;18.27;;;;;;;10.39;100.00;101898.69;4966324;28;20710;-71
2023/04/10 08:08:07;;;;;;;23.80;19.10;;;;;;;10.59;100.00;101906.38;4966097;28;20694;-72
2023/04/10 08:10:36;;;;;;;22.60;18.90;;;;;;;10.75;100.00;101916.19;4980582;28;20217;-71
2023/04/10 08:13:02;;;;;;;23.60;18.00;;;;;;;10.26;100.00;101784.91;4979527;28;20221;-72
2023/04/10 08:15:27;;;;;;;19.47;16.10;;;;;;;10.39;100.00;101785.22;4985039;28;20825;-72
2023/04/10 08:17:53;;;;;;;20.00;16.17;;;;;;;11.15;100.00;101880.25;4979953;28;20687;-71
2023/04/10 08:20:18;;;;;;;22.03;17.03;;;;;;;10.54;100.00;101759.31;4985481;28;20210;-74
2023/04/10 08:22:44;;;;;;;21.13;15.30;;;;;;;10.99;100.00;101791.75;4982491;28;20178;-73
2023/04/10 08:25:09;;;;;;;16.93;14.77;;;;;;;11.02;100.00;101764.53;4983217;28;20638;-72
2023/04/10 08:27:35;;;;;;;18.83;15.60;;;;;;;11.13;100.00;101776.72;4984196;28;20737;-72
2023/04/10 08:30:00;;;;;;;19.23;15.23;;;;;;;11.30;100.00;101770.22;4980391;28;20647;-72
2023/04/10 08:32:27;;;;;;;17.60;14.63;;;;;;;11.81;100.00;101832.22;4985769;28;20186;-73
2023/04/10 08:34:52;;;;;;;17.90;14.87;;;;;;;11.40;100.00;101754.69;4984449;28;20265;-73
2023/04/10 08:37:18;;;;;;;17.70;14.07;;;;;;;12.03;100.00;101821.63;4985419;28;20531;-72
2023/04/10 08:39:44;;;;;;;18.50;14.57;;;;;;;12.03;100.00;101811.69;4985359;28;20197;-74
2023/04/10 08:42:09;;;;;;;17.20;13.50;;;;;;;11.53;100.00;101694.94;4981524;28;20499;-72
2023/04/10 08:44:36;;;;;;;17.20;13.97;;;;;;;12.17;100.00;101767.81;4985456;28;20204;-72
2023/04/10 08:47:02;;;;;;;15.37;13.10;;;;;;;11.76;100.00;101689.47;4986066;28;20192;-72
2023/04/10 08:49:27;;;;;;;15.80;12.60;;;;;;;12.49;100.00;101802.59;4978631;28;20905;-72
2023/04/10 08:51:58;;;;;;;17.40;12.03;;;;;;;12.31;100.00;101763.47;4965526;28;20449;-72
2023/04/10 08:54:36;;;;;;;16.33;12.47;;;;;;;12.48;100.00;101761.41;4983835;28;20217;-72
2023/04/10 08:57:04;;;;;;;13.83;11.70;;;;;;;12.06;100.00;101689.47;4985838;28;20527;-72
2023/04/10 08:59:30;;;;;;;15.37;10.10;;;;;;;12.02;100.00;101683.66;4986599;28;20503;-72
2023/04/10 09:01:56;;;;;;;51.50;12.30;;;;;;;12.06;100.00;101692.16;4982604;28;20440;-70
2023/04/10 09:04:23;;;;;;;12.97;10.57;;;;;;;12.50;100.00;101751.28;4982993;28;20181;-73
2023/04/10 09:06:49;;;;;;;13.07;9.90;;;;;;;12.35;100.00;101719.03;4965477;28;20452;-73
2023/04/10 09:09:14;;;;;;;14.10;10.17;;;;;;;10.74;100.00;101475.28;4986626;28;20465;-71
2023/04/10 09:11:55;;;;;;;12.07;10.43;;;;;;;12.60;100.00;101748.28;4983972;28;20189;-73
2023/04/10 09:14:30;;;;;;;12.27;9.33;;;;;;;12.01;100.00;101627.41;4967429;28;20213;-73
2023/04/10 09:17:17;;;;;;;13.10;9.53;;;;;;;13.00;100.00;101754.91;4977488;28;20440;-73
2023/04/10 09:19:47;;;;;;;10.63;9.00;;;;;;;13.15;100.00;101754.84;4983904;28;20452;-72
2023/04/10 09:22:13;;;;;;;10.37;8.87;;;;;;;13.11;100.00;101753.56;4978693;28;20437;-70
2023/04/10 09:24:41;;;;;;;10.00;8.47;;;;;;;12.84;100.00;101704.00;4975979;28;20437;-71
2023/04/10 09:27:07;;;;;;;10.80;8.97;;;;;;;13.00;100.00;101702.91;4975136;28;20445;-71
2023/04/10 09:29:50;;;;;;;11.23;8.97;;;;;;;13.03;100.00;101708.75;4976564;28;20472;-72
2023/04/10 09:32:34;;;;;;;9.87;8.33;;;;;;;13.49;100.00;101748.75;4981498;28;20856;-71
2023/04/10 09:35:00;;;;;;;9.80;8.63;;;;;;;13.19;100.00;101709.50;4981818;28;20440;-71
2023/04/10 09:37:32;;;;;;;14.17;9.07;;;;;;;12.58;100.00;101637.28;4977827;28;20927;-71
2023/04/10 09:39:58;;;;;;;8.90;7.63;;;;;;;12.90;100.00;101665.53;4979309;28;20202;-71
2023/04/10 09:42:31;;;;;;;11.90;8.43;;;;;;;13.25;100.00;101712.28;4980443;28;20444;-71
2023/04/10 09:44:57;;;;;;;13.30;8.20;;;;;;;13.38;100.00;101716.94;4979555;28;20893;-71
2023/04/10 09:47:23;;;;;;;14.83;8.70;;;;;;;13.26;100.00;101719.34;4979204;28;20565;-72
2023/04/10 09:49:51;;;;;;;11.70;8.70;;;;;;;12.80;100.00;101647.03;4969511;28;20476;-74
2023/04/10 09:52:30;;;;;;;9.70;7.80;;;;;;;13.16;100.00;101683.75;4981911;28;20182;-71
2023/04/10 09:55:00;;;;;;;10.33;7.73;;;;;;;13.34;100.00;101708.41;4968285;28;20954;-71
2023/04/10 09:57:28;;;;;;;10.17;8.53;;;;;;;13.41;100.00;101700.38;4960874;28;20460;-70
2023/04/10 09:59:59;;;;;;;9.53;7.23;;;;;;;12.97;100.00;101620.66;4967461;28;20457;-71
2023/04/10 10:02:28;;;;;;;9.87;7.87;;;;;;;13.05;100.00;101652.00;4966363;28;20436;-71
2023/04/10 10:04:54;;;;;;;13.07;8.03;;;;;;;13.45;100.00;101679.25;4984017;28;20436;-71
2023/04/10 10:07:21;;;;;;;9.27;8.27;;;;;;;12.91;100.00;101578.34;4965523;28;20448;-71
2023/04/10 10:09:49;;;;;;;8.90;7.57;;;;;;;13.35;100.00;101625.72;4977363;28;20508;-72
2023/04/10 10:12:20;;;;;;;10.67;8.60;;;;;;;13.60;100.00;101661.13;4982213;28;20436;-72
2023/04/10 10:14:59;;;;;;;14.33;9.43;;;;;;;13.49;100.00;101632.03;4983827;28;20526;-72
2023/04/10 10:17:30;;;;;;;8.30;7.50;;;;;;;13.62;100.00;101636.63;4977736;28;20448;-71
2023/04/10 10:20:03;;;;;;;9.10;7.63;;;;;;;13.70;100.00;101640.00;4983145;28;20452;-72
2023/04/10 10:22:29;;;;;;;9.83;8.87;;;;;;;13.44;100.00;101572.50;4981859;28;20441;-72
2023/04/10 10:24:55;;;;;;;8.80;7.90;;;;;;;13.47;100.00;101547.84;4979912;28;20451;-71
2023/04/10 10:27:22;;;;;;;9.30;7.93;;;;;;;13.89;100.00;101608.78;4963051;28;20931;-70
2023/04/10 10:29:51;;;;;;;10.20;8.00;;;;;;;13.85;100.00;101577.00;4982360;28;20484;-71
2023/04/10 10:32:17;;;;;;;8.03;7.23;;;;;;;13.92;100.00;101589.50;4983480;28;20448;-71
2023/04/10 10:34:44;;;;;;;8.63;7.60;;;;;;;13.67;100.00;101519.09;5020426;23;20495;-69
2023/04/10 10:37:10;;;;;;;7.87;6.13;;;;;;;13.94;100.00;101511.06;4998779;28;20505;-70
2023/04/10 10:40:01;;;;;;;12.20;6.97;;;;;;;14.52;100.00;101573.44;4995606;28;20531;-70
2023/04/10 10:42:26;;;;;;;14.17;7.00;;;;;;;14.46;100.00;101569.69;4998419;28;20443;-70
2023/04/10 10:45:04;;;;;;;8.47;6.00;;;;;;;14.48;100.00;101569.47;4982884;28;20467;-70
2023/04/10 10:47:33;;;;;;;12.10;6.60;;;;;;;13.91;100.00;101471.84;4996248;28;20193;-68
2023/04/10 10:50:00;;;;;;;8.00;6.70;;;;;;;14.39;100.00;101528.34;4980760;28;20439;-70
2023/04/10 10:52:38;;;;;;;10.97;6.40;;;;;;;14.69;100.00;101546.84;4999002;28;20444;-70
2023/04/10 10:55:35;;;;;;;10.20;5.90;;;;;;;14.77;100.00;101533.13;4996159;28;20525;-71
2023/04/10 10:58:05;;;;;;;8.20;5.83;;;;;;;14.94;100.00;101540.81;4996150;28;20438;-70
2023/04/10 11:00:49;;;;;;;14.70;6.30;;;;;;;14.82;100.00;101546.84;4977328;28;20495;-69
2023/04/10 11:03:14;;;;;;;30.73;7.43;;;;;;;14.83;100.00;101545.78;4975425;28;20721;-70
2023/04/10 11:05:51;;;;;;;11.97;5.60;;;;;;;14.99;100.00;101532.91;4993536;28;20443;-70
2023/04/10 11:08:17;;;;;;;12.67;6.77;;;;;;;14.73;100.00;101487.88;4990217;28;20231;-71
2023/04/10 11:11:14;;;;;;;10.53;5.50;;;;;;;14.81;100.00;101493.88;4978968;28;20953;-69